Pagina principale
METAR-TAF:

METAR-TAF

Aeroporti :

Bolzano, Italia

latitudine: 46-28N, longitudine: 011-20E, altezza: 262 m

Osservazione

Il bollettino è stato emesso 28 minuti fa, alle 16:50 UTC
Vento 6 kt da sud, variando fra sud-est e sud/sud-ovest
Temperature 23°C
Umidità 47%
Pressione 998 hPa
Visibilità 10 km o più
Nuvoloso ad un'altezza di 10000 ft

METAR: LIPB 051650Z 17006KT 140V200 9999 BKN100 23/11 Q0998

Ora: 19:18 (17:18 UTC)

Previsione

Il bollettino è stato emesso 6 ore e 18 minuti fa, alle 11:00 UTC
Previsione valida dal 05 alle 12 UTC al 06 alle 12 UTC
Vento 5 kt da direzioni variabili
Visibilità 10 km o più
Nubi sparse ad un'altezza di 4000 ft

TAF: LIPB 051100Z 0512/0612 VRB05KT 9999 SCT040

Osservazioni e previsioni meteorologiche di più di 4000 aeroporti (messaggi METAR e TAF).

Le stazioni disponibili sono rappresentate dai dischi gialli e rossi sulla carta.

Puntare il mouse per vedere il nome della stazione.

Clicca sopra per visualizzare le osservazioni e previsioni meteorologiche.

Per cambiare la mappa : fare clic sui pulsanti verdi con una croce nera per ingrandire, il pulsante verde con un trattino per diminuire, o sulla freccia verde per le mappe adiacenti.


METAR-TAF: